YSDU

Details ICAO YSDU (DBO)
Name Dubbo
Region Australia
Timezone Australia/Sydney (UTC+11.0)
Plans Departing 556
Arriving 840
Stats Elevation 935 ft / 285 m (AMSL)
Location -32.217500° 148.577000°
Runways 2
Magnetic Variation 11.088° E
Sunrise 2021-01-25 19:25:34 UTC / 2021-01-26 06:25:34 Local
Sunset 2021-01-26 09:13:05 UTC / 2021-01-26 20:13:05 Local
Advertisement - Login to hide

Runways

ID Width Length Bearing (true/mag) Surface Threshold Overrun Markings Lighting
05 148 ft / 45 m 5,605 ft / 1,708 m 53.60° / 42.52° ASPHALT 0 ft / 0 m 0 ft / 0 m PREC-APP CENTERLINE EDGE THRESHOLD
11 59 ft / 18 m 3,498 ft / 1,066 m 119.17° / 108.09° ASPHALT 0 ft / 0 m 0 ft / 0 m APP
23 148 ft / 45 m 5,605 ft / 1,708 m 233.60° / 222.51° ASPHALT 0 ft / 0 m 0 ft / 0 m PREC-APP CENTERLINE EDGE THRESHOLD
29 59 ft / 18 m 3,498 ft / 1,066 m 299.17° / 288.08° ASPHALT 0 ft / 0 m 0 ft / 0 m APP

Map

Weather


0- 5 10 15 20 25 30 35+ Temperature / °C

Clouds and Precipitation
Forecast for 2021-01-26 06:00 UTC. Updated an hour ago

Ground ~20,000 ft ~40,000 ft Winds

METAR

YSDU 260419Z AUTO 32015G25KT 9999 // SCT090 OVC110 35/12 Q1002

TAF

TAF YSDU 252310Z 2600/2618 35014KT CAVOK FM260400 30008KT CAVOK FM261100 05008KT CAVOK

Frequencies

Unicom 134.00 MHz DUBBO MULT
Unicom 123.90 MHz MELBOURNE CENTRE MULT
Unicom 121.30 MHz ACTIVATE LIGHTS ONLY MULT
Warning: Do not use this data for real-world aviation or navigation. No guarantee of current accuracy is given.